HAZ6331 ZGHA-ZGGG
Flight info
| Callsign | HAZ6331 |
|---|---|
| Flight time | 0h 59m |
| Altitude | 30100 |
| Route | UBMOG W615 IDAXI R473 BEMAG V5 ENVIP |
| Aircraft | A21N/M-SD1T1E2E3FGILRWXY/LB1D1 |
Departure
| Time | 2026-04-26 03:49 |
|---|---|
| Airport | Changsha Huanghua International Airport (ZGHA) |
Arrival
| Time | 2026-04-26 04:48 |
|---|---|
| Airport | Guangzhou Baiyun International Airport (ZGGG) |
| Time | Latitude | Longitude | Altitude | Speed | Heading |
|---|---|---|---|---|---|
| 2026-04-26 03:31 | 28.19828 | 113.21559 | 221 ft | 0 kts | 263° |
| 2026-04-26 03:39 | 28.19830 | 113.21572 | 221 ft | 2 kts | 263° |
| 2026-04-26 03:40 | 28.19830 | 113.21589 | 221 ft | 2 kts | 282° |
| 2026-04-26 03:40 | 28.19825 | 113.21605 | 221 ft | 2 kts | 297° |
| 2026-04-26 03:40 | 28.19816 | 113.21619 | 221 ft | 2 kts | 315° |
| 2026-04-26 03:40 | 28.19805 | 113.21629 | 221 ft | 2 kts | 332° |
| 2026-04-26 03:41 | 28.19791 | 113.21635 | 221 ft | 2 kts | 348° |
| 2026-04-26 03:41 | 28.19783 | 113.21637 | 221 ft | 1 kts | 358° |
| 2026-04-26 03:41 | 28.19778 | 113.21637 | 221 ft | 0 kts | 357° |
| 2026-04-26 03:44 | 28.19779 | 113.21637 | 221 ft | 0 kts | 357° |
| 2026-04-26 03:44 | 28.19793 | 113.21636 | 221 ft | 3 kts | 357° |
| 2026-04-26 03:45 | 28.19823 | 113.21635 | 221 ft | 5 kts | 357° |
| 2026-04-26 03:45 | 28.19869 | 113.21632 | 221 ft | 7 kts | 356° |
| 2026-04-26 03:45 | 28.19931 | 113.21628 | 221 ft | 9 kts | 356° |
| 2026-04-26 03:45 | 28.20006 | 113.21623 | 221 ft | 11 kts | 357° |
| 2026-04-26 03:46 | 28.20061 | 113.21682 | 221 ft | 12 kts | 57° |
| 2026-04-26 03:46 | 28.20140 | 113.21709 | 221 ft | 13 kts | 350° |
| 2026-04-26 03:46 | 28.20233 | 113.21707 | 221 ft | 14 kts | 357° |
| 2026-04-26 03:47 | 28.20445 | 113.21693 | 221 ft | 16 kts | 356° |
| 2026-04-26 03:47 | 28.20556 | 113.21687 | 220 ft | 13 kts | 5° |
| 2026-04-26 03:47 | 28.20603 | 113.21759 | 220 ft | 13 kts | 84° |
| 2026-04-26 03:47 | 28.20585 | 113.21858 | 220 ft | 13 kts | 141° |
| 2026-04-26 03:48 | 28.20501 | 113.21878 | 220 ft | 3 kts | 175° |
| 2026-04-26 03:48 | 28.20288 | 113.21891 | 221 ft | 67 kts | 176° |
| 2026-04-26 03:48 | 28.19546 | 113.21938 | 221 ft | 142 kts | 176° |
| 2026-04-26 03:48 | 28.18393 | 113.22018 | 465 ft | 180 kts | 176° |
| 2026-04-26 03:49 | 28.17084 | 113.22128 | 1052 ft | 200 kts | 175° |
| 2026-04-26 03:49 | 28.15695 | 113.22251 | 1832 ft | 205 kts | 175° |
| 2026-04-26 03:49 | 28.14269 | 113.22334 | 2638 ft | 205 kts | 178° |
| 2026-04-26 03:49 | 28.12861 | 113.22392 | 3359 ft | 207 kts | 178° |
| 2026-04-26 03:50 | 28.11404 | 113.22469 | 3738 ft | 209 kts | 176° |
| 2026-04-26 03:50 | 28.09997 | 113.22895 | 3867 ft | 212 kts | 157° |
| 2026-04-26 03:50 | 28.08678 | 113.23657 | 3869 ft | 213 kts | 153° |
| 2026-04-26 03:50 | 28.07374 | 113.24464 | 3869 ft | 212 kts | 153° |
| 2026-04-26 03:51 | 28.06070 | 113.25251 | 3867 ft | 213 kts | 153° |
| 2026-04-26 03:51 | 28.04758 | 113.26021 | 3868 ft | 212 kts | 154° |
| 2026-04-26 03:51 | 28.03429 | 113.26781 | 3900 ft | 212 kts | 154° |
| 2026-04-26 03:51 | 28.02043 | 113.27563 | 4205 ft | 236 kts | 154° |
| 2026-04-26 03:52 | 28.00487 | 113.28433 | 4571 ft | 262 kts | 154° |
| 2026-04-26 03:52 | 27.98784 | 113.29379 | 4940 ft | 287 kts | 154° |
| 2026-04-26 03:52 | 27.96931 | 113.30406 | 5305 ft | 300 kts | 154° |
| 2026-04-26 03:52 | 27.95032 | 113.31459 | 5669 ft | 304 kts | 155° |
| 2026-04-26 03:53 | 27.93117 | 113.32517 | 6027 ft | 308 kts | 155° |
| 2026-04-26 03:53 | 27.91201 | 113.33574 | 6384 ft | 311 kts | 155° |
| 2026-04-26 03:53 | 27.89236 | 113.34656 | 6750 ft | 313 kts | 154° |
| 2026-04-26 03:53 | 27.87274 | 113.35734 | 7106 ft | 316 kts | 154° |
| 2026-04-26 03:54 | 27.83709 | 113.37697 | 7741 ft | 321 kts | 154° |
| 2026-04-26 03:54 | 27.79774 | 113.39861 | 8435 ft | 327 kts | 154° |
| 2026-04-26 03:54 | 27.75720 | 113.42089 | 9122 ft | 333 kts | 154° |
| 2026-04-26 03:54 | 27.71576 | 113.44365 | 9830 ft | 339 kts | 154° |
| 2026-04-26 03:55 | 27.67416 | 113.46649 | 10525 ft | 343 kts | 154° |
| 2026-04-26 03:55 | 27.63147 | 113.48991 | 11284 ft | 347 kts | 154° |
| 2026-04-26 03:55 | 27.60300 | 113.50552 | 11865 ft | 351 kts | 154° |
| 2026-04-26 03:55 | 27.58128 | 113.51739 | 12318 ft | 354 kts | 155° |
| 2026-04-26 03:56 | 27.55932 | 113.52940 | 12760 ft | 357 kts | 155° |
| 2026-04-26 03:56 | 27.53695 | 113.54163 | 13212 ft | 359 kts | 155° |
| 2026-04-26 03:56 | 27.51472 | 113.55378 | 13662 ft | 362 kts | 155° |
| 2026-04-26 03:56 | 27.49206 | 113.56617 | 14122 ft | 364 kts | 155° |
| 2026-04-26 03:57 | 27.46958 | 113.57845 | 14560 ft | 366 kts | 155° |
| 2026-04-26 03:57 | 27.44662 | 113.59100 | 15020 ft | 369 kts | 156° |
| 2026-04-26 03:57 | 27.42374 | 113.60346 | 15470 ft | 372 kts | 156° |
| 2026-04-26 03:57 | 27.40059 | 113.61607 | 15926 ft | 374 kts | 156° |
| 2026-04-26 03:58 | 27.37729 | 113.62878 | 16375 ft | 378 kts | 156° |
| 2026-04-26 03:58 | 27.35383 | 113.64156 | 16833 ft | 380 kts | 156° |
| 2026-04-26 03:58 | 27.32991 | 113.65459 | 17286 ft | 383 kts | 157° |
| 2026-04-26 03:58 | 27.30619 | 113.66750 | 17746 ft | 385 kts | 156° |
| 2026-04-26 03:59 | 27.28227 | 113.68050 | 18234 ft | 389 kts | 157° |
| 2026-04-26 03:59 | 27.25806 | 113.69357 | 18723 ft | 392 kts | 158° |
| 2026-04-26 03:59 | 27.24112 | 113.70138 | 19050 ft | 393 kts | 163° |
| 2026-04-26 03:59 | 27.20628 | 113.71220 | 19704 ft | 393 kts | 173° |
| 2026-04-26 04:00 | 27.17954 | 113.71701 | 20195 ft | 396 kts | 175° |
| 2026-04-26 04:00 | 27.15244 | 113.72125 | 20686 ft | 399 kts | 176° |
| 2026-04-26 04:00 | 27.12502 | 113.72546 | 21185 ft | 403 kts | 176° |
| 2026-04-26 04:00 | 27.09743 | 113.72973 | 21687 ft | 406 kts | 176° |
| 2026-04-26 04:01 | 27.06934 | 113.73413 | 22199 ft | 409 kts | 176° |
| 2026-04-26 04:01 | 27.04138 | 113.73856 | 22702 ft | 413 kts | 176° |
| 2026-04-26 04:01 | 27.01291 | 113.74308 | 23207 ft | 416 kts | 176° |
| 2026-04-26 04:01 | 26.98441 | 113.74761 | 23733 ft | 418 kts | 176° |
| 2026-04-26 04:02 | 26.95598 | 113.75216 | 24261 ft | 419 kts | 176° |
| 2026-04-26 04:02 | 26.92728 | 113.75676 | 24760 ft | 421 kts | 176° |
| 2026-04-26 04:02 | 26.89860 | 113.76135 | 25252 ft | 423 kts | 176° |
| 2026-04-26 04:02 | 26.86962 | 113.76596 | 25753 ft | 423 kts | 176° |
| 2026-04-26 04:03 | 26.84059 | 113.77058 | 26253 ft | 424 kts | 176° |
| 2026-04-26 04:03 | 26.81183 | 113.77516 | 26746 ft | 423 kts | 176° |
| 2026-04-26 04:03 | 26.78287 | 113.77976 | 27244 ft | 423 kts | 176° |
| 2026-04-26 04:03 | 26.75407 | 113.78474 | 27745 ft | 423 kts | 174° |
| 2026-04-26 04:04 | 26.72546 | 113.79154 | 28246 ft | 424 kts | 170° |
| 2026-04-26 04:04 | 26.69723 | 113.80005 | 28747 ft | 423 kts | 168° |
| 2026-04-26 04:04 | 26.66922 | 113.80888 | 29248 ft | 421 kts | 168° |
| 2026-04-26 04:04 | 26.64129 | 113.81773 | 29742 ft | 419 kts | 168° |
| 2026-04-26 04:05 | 26.61371 | 113.82642 | 30057 ft | 421 kts | 168° |
| 2026-04-26 04:05 | 26.55600 | 113.84444 | 30142 ft | 442 kts | 168° |
| 2026-04-26 04:05 | 26.52646 | 113.85365 | 30145 ft | 453 kts | 168° |
| 2026-04-26 04:06 | 26.49587 | 113.86320 | 30150 ft | 463 kts | 168° |
| 2026-04-26 04:06 | 26.43298 | 113.88159 | 30160 ft | 481 kts | 169° |
| 2026-04-26 04:07 | 26.36755 | 113.90033 | 30169 ft | 498 kts | 169° |
| 2026-04-26 04:07 | 26.30010 | 113.91979 | 30196 ft | 509 kts | 168° |
| 2026-04-26 04:08 | 26.23180 | 113.93954 | 30228 ft | 509 kts | 168° |
| 2026-04-26 04:08 | 26.16397 | 113.95909 | 30251 ft | 510 kts | 168° |
| 2026-04-26 04:09 | 26.09549 | 113.97878 | 30262 ft | 508 kts | 169° |
| 2026-04-26 04:09 | 26.02686 | 113.99118 | 30263 ft | 506 kts | 179° |
| 2026-04-26 04:10 | 25.95739 | 113.99062 | 30260 ft | 499 kts | 189° |
| 2026-04-26 04:10 | 25.88911 | 113.97975 | 30237 ft | 497 kts | 193° |
| 2026-04-26 04:11 | 25.82173 | 113.96769 | 30221 ft | 497 kts | 193° |
| 2026-04-26 04:11 | 25.75398 | 113.95579 | 30190 ft | 496 kts | 193° |
| 2026-04-26 04:12 | 25.68621 | 113.94401 | 30173 ft | 496 kts | 193° |
| 2026-04-26 04:12 | 25.61846 | 113.93229 | 30176 ft | 496 kts | 193° |
| 2026-04-26 04:13 | 25.55082 | 113.92062 | 30181 ft | 496 kts | 193° |
| 2026-04-26 04:13 | 25.48303 | 113.90895 | 30188 ft | 496 kts | 193° |
| 2026-04-26 04:14 | 25.41557 | 113.89736 | 30180 ft | 495 kts | 193° |
| 2026-04-26 04:14 | 25.34786 | 113.88573 | 30174 ft | 495 kts | 193° |
| 2026-04-26 04:14 | 25.31405 | 113.87993 | 29983 ft | 494 kts | 193° |
| 2026-04-26 04:15 | 25.28064 | 113.87420 | 29588 ft | 491 kts | 193° |
| 2026-04-26 04:15 | 25.24734 | 113.86849 | 29204 ft | 487 kts | 192° |
| 2026-04-26 04:15 | 25.21435 | 113.86285 | 28827 ft | 484 kts | 192° |
| 2026-04-26 04:15 | 25.18157 | 113.85722 | 28446 ft | 481 kts | 192° |
| 2026-04-26 04:16 | 25.14855 | 113.85158 | 28067 ft | 478 kts | 192° |
| 2026-04-26 04:16 | 25.11628 | 113.84607 | 27689 ft | 474 kts | 192° |
| 2026-04-26 04:16 | 25.08420 | 113.84062 | 27314 ft | 471 kts | 192° |
| 2026-04-26 04:16 | 25.05203 | 113.83517 | 26935 ft | 468 kts | 192° |
| 2026-04-26 04:17 | 25.02023 | 113.82977 | 26563 ft | 465 kts | 192° |
| 2026-04-26 04:17 | 24.98853 | 113.82437 | 26183 ft | 462 kts | 192° |
| 2026-04-26 04:17 | 24.95696 | 113.81898 | 25805 ft | 459 kts | 192° |
| 2026-04-26 04:17 | 24.92567 | 113.81368 | 25431 ft | 455 kts | 192° |
| 2026-04-26 04:18 | 24.89504 | 113.80846 | 25058 ft | 453 kts | 192° |
| 2026-04-26 04:18 | 24.86393 | 113.80316 | 24675 ft | 450 kts | 192° |
| 2026-04-26 04:18 | 24.83323 | 113.79793 | 24297 ft | 447 kts | 192° |
| 2026-04-26 04:18 | 24.80319 | 113.79283 | 23925 ft | 444 kts | 192° |
| 2026-04-26 04:19 | 24.77250 | 113.78762 | 23540 ft | 441 kts | 192° |
| 2026-04-26 04:19 | 24.74251 | 113.78254 | 23158 ft | 438 kts | 192° |
| 2026-04-26 04:19 | 24.71240 | 113.77741 | 22787 ft | 450 kts | 192° |
| 2026-04-26 04:19 | 24.68130 | 113.77208 | 22418 ft | 471 kts | 191° |
| 2026-04-26 04:20 | 24.64895 | 113.76658 | 22035 ft | 474 kts | 191° |
| 2026-04-26 04:20 | 24.61643 | 113.76109 | 21655 ft | 473 kts | 191° |
| 2026-04-26 04:20 | 24.58404 | 113.75564 | 21285 ft | 470 kts | 191° |
| 2026-04-26 04:20 | 24.55240 | 113.75029 | 20916 ft | 467 kts | 191° |
| 2026-04-26 04:21 | 24.52067 | 113.74493 | 20552 ft | 464 kts | 191° |
| 2026-04-26 04:21 | 24.48914 | 113.73960 | 20181 ft | 459 kts | 191° |
| 2026-04-26 04:21 | 24.45781 | 113.73431 | 19819 ft | 455 kts | 191° |
| 2026-04-26 04:21 | 24.42681 | 113.72905 | 19700 ft | 453 kts | 191° |
| 2026-04-26 04:22 | 24.39616 | 113.72387 | 19694 ft | 454 kts | 191° |
| 2026-04-26 04:22 | 24.36498 | 113.71862 | 19696 ft | 454 kts | 191° |
| 2026-04-26 04:22 | 24.33388 | 113.71345 | 19513 ft | 454 kts | 191° |
| 2026-04-26 04:22 | 24.30290 | 113.70828 | 19140 ft | 450 kts | 191° |
| 2026-04-26 04:23 | 24.27247 | 113.70312 | 18772 ft | 447 kts | 191° |
| 2026-04-26 04:23 | 24.24196 | 113.69794 | 18402 ft | 444 kts | 190° |
| 2026-04-26 04:23 | 24.21179 | 113.69280 | 18040 ft | 442 kts | 190° |
| 2026-04-26 04:23 | 24.18158 | 113.68766 | 17677 ft | 439 kts | 190° |
| 2026-04-26 04:24 | 24.15198 | 113.68265 | 17326 ft | 436 kts | 190° |
| 2026-04-26 04:24 | 24.12219 | 113.67763 | 16974 ft | 434 kts | 190° |
| 2026-04-26 04:24 | 24.09292 | 113.67269 | 16633 ft | 432 kts | 190° |
| 2026-04-26 04:24 | 24.06316 | 113.66768 | 16283 ft | 430 kts | 190° |
| 2026-04-26 04:25 | 24.03420 | 113.66278 | 15941 ft | 428 kts | 190° |
| 2026-04-26 04:25 | 24.00490 | 113.65783 | 15729 ft | 426 kts | 190° |
| 2026-04-26 04:25 | 23.97599 | 113.65293 | 15725 ft | 427 kts | 190° |
| 2026-04-26 04:25 | 23.94667 | 113.64798 | 15713 ft | 427 kts | 190° |
| 2026-04-26 04:26 | 23.91731 | 113.64300 | 15711 ft | 427 kts | 190° |
| 2026-04-26 04:26 | 23.88816 | 113.63808 | 15711 ft | 428 kts | 190° |
| 2026-04-26 04:26 | 23.85899 | 113.63316 | 15705 ft | 428 kts | 190° |
| 2026-04-26 04:26 | 23.82950 | 113.62784 | 15703 ft | 427 kts | 193° |
| 2026-04-26 04:27 | 23.80146 | 113.61938 | 15694 ft | 415 kts | 200° |
| 2026-04-26 04:27 | 23.77544 | 113.60757 | 15561 ft | 398 kts | 207° |
| 2026-04-26 04:27 | 23.75203 | 113.59325 | 15336 ft | 385 kts | 213° |
| 2026-04-26 04:27 | 23.72963 | 113.57804 | 14998 ft | 376 kts | 214° |
| 2026-04-26 04:28 | 23.70783 | 113.56296 | 14669 ft | 371 kts | 214° |
| 2026-04-26 04:28 | 23.68625 | 113.54809 | 14341 ft | 370 kts | 214° |
| 2026-04-26 04:28 | 23.66464 | 113.53331 | 14001 ft | 367 kts | 214° |
| 2026-04-26 04:28 | 23.64337 | 113.51883 | 13698 ft | 359 kts | 213° |
| 2026-04-26 04:29 | 23.62252 | 113.50497 | 13423 ft | 351 kts | 211° |
| 2026-04-26 04:29 | 23.60123 | 113.49302 | 13136 ft | 344 kts | 206° |
| 2026-04-26 04:29 | 23.57958 | 113.48322 | 12850 ft | 337 kts | 202° |
| 2026-04-26 04:29 | 23.55733 | 113.47539 | 12556 ft | 331 kts | 197° |
| 2026-04-26 04:30 | 23.53566 | 113.46931 | 12279 ft | 324 kts | 195° |
| 2026-04-26 04:30 | 23.51388 | 113.46342 | 11991 ft | 318 kts | 196° |
| 2026-04-26 04:30 | 23.49283 | 113.45776 | 11706 ft | 312 kts | 196° |
| 2026-04-26 04:30 | 23.47198 | 113.45213 | 11427 ft | 307 kts | 196° |
| 2026-04-26 04:31 | 23.45169 | 113.44662 | 11142 ft | 301 kts | 196° |
| 2026-04-26 04:31 | 23.43169 | 113.44120 | 10861 ft | 299 kts | 196° |
| 2026-04-26 04:31 | 23.41148 | 113.43571 | 10572 ft | 298 kts | 195° |
| 2026-04-26 04:31 | 23.39158 | 113.43029 | 10288 ft | 297 kts | 195° |
| 2026-04-26 04:32 | 23.37169 | 113.42490 | 10004 ft | 297 kts | 195° |
| 2026-04-26 04:32 | 23.35159 | 113.41945 | 9716 ft | 296 kts | 195° |
| 2026-04-26 04:32 | 23.33188 | 113.41410 | 9435 ft | 294 kts | 195° |
| 2026-04-26 04:32 | 23.31232 | 113.40881 | 9154 ft | 293 kts | 195° |
| 2026-04-26 04:33 | 23.29257 | 113.40346 | 8873 ft | 295 kts | 195° |
| 2026-04-26 04:33 | 23.27256 | 113.39803 | 8590 ft | 297 kts | 195° |
| 2026-04-26 04:33 | 23.25299 | 113.39275 | 8305 ft | 292 kts | 195° |
| 2026-04-26 04:33 | 23.23344 | 113.38746 | 8017 ft | 287 kts | 195° |
| 2026-04-26 04:34 | 23.21443 | 113.38232 | 7731 ft | 282 kts | 195° |
| 2026-04-26 04:34 | 23.19571 | 113.37726 | 7448 ft | 277 kts | 194° |
| 2026-04-26 04:34 | 23.17732 | 113.37229 | 7166 ft | 273 kts | 194° |
| 2026-04-26 04:34 | 23.15914 | 113.36736 | 6873 ft | 269 kts | 194° |
| 2026-04-26 04:35 | 23.14113 | 113.36249 | 6541 ft | 267 kts | 194° |
| 2026-04-26 04:35 | 23.12333 | 113.35767 | 6209 ft | 265 kts | 194° |
| 2026-04-26 04:35 | 23.10560 | 113.35289 | 5856 ft | 262 kts | 194° |
| 2026-04-26 04:35 | 23.08818 | 113.34819 | 5510 ft | 258 kts | 193° |
| 2026-04-26 04:36 | 23.07100 | 113.34355 | 5124 ft | 256 kts | 193° |
| 2026-04-26 04:36 | 23.05377 | 113.33890 | 4673 ft | 256 kts | 193° |
| 2026-04-26 04:36 | 23.03664 | 113.33429 | 4194 ft | 258 kts | 193° |
| 2026-04-26 04:36 | 23.01926 | 113.32961 | 3673 ft | 261 kts | 193° |
| 2026-04-26 04:37 | 23.00183 | 113.32492 | 3250 ft | 253 kts | 193° |
| 2026-04-26 04:37 | 22.98518 | 113.32044 | 3039 ft | 248 kts | 193° |
| 2026-04-26 04:37 | 22.96891 | 113.31605 | 2945 ft | 235 kts | 193° |
| 2026-04-26 04:37 | 22.95365 | 113.31193 | 2926 ft | 219 kts | 193° |
| 2026-04-26 04:38 | 22.94031 | 113.30537 | 2886 ft | 205 kts | 225° |
| 2026-04-26 04:38 | 22.93431 | 113.29241 | 2985 ft | 195 kts | 258° |
| 2026-04-26 04:38 | 22.93489 | 113.27795 | 2964 ft | 195 kts | 285° |
| 2026-04-26 04:38 | 22.94135 | 113.26533 | 2945 ft | 195 kts | 313° |
| 2026-04-26 04:39 | 22.95240 | 113.25711 | 2945 ft | 194 kts | 337° |
| 2026-04-26 04:39 | 22.96484 | 113.25159 | 2945 ft | 194 kts | 339° |
| 2026-04-26 04:39 | 22.97731 | 113.24630 | 2944 ft | 194 kts | 339° |
| 2026-04-26 04:39 | 22.98975 | 113.24088 | 2943 ft | 194 kts | 339° |
| 2026-04-26 04:40 | 23.00224 | 113.23528 | 2944 ft | 194 kts | 338° |
| 2026-04-26 04:40 | 23.01467 | 113.22964 | 2862 ft | 194 kts | 338° |
| 2026-04-26 04:40 | 23.02742 | 113.22549 | 2671 ft | 192 kts | 351° |
| 2026-04-26 04:40 | 23.04056 | 113.22370 | 2484 ft | 191 kts | 357° |
| 2026-04-26 04:41 | 23.05365 | 113.22407 | 2296 ft | 189 kts | 7° |
| 2026-04-26 04:41 | 23.06655 | 113.22630 | 2109 ft | 189 kts | 13° |
| 2026-04-26 04:41 | 23.07944 | 113.22939 | 1962 ft | 188 kts | 14° |
| 2026-04-26 04:41 | 23.09212 | 113.23267 | 1951 ft | 189 kts | 15° |
| 2026-04-26 04:42 | 23.10474 | 113.23601 | 1947 ft | 189 kts | 15° |
| 2026-04-26 04:42 | 23.11748 | 113.23944 | 1944 ft | 189 kts | 15° |
| 2026-04-26 04:42 | 23.13017 | 113.24287 | 1942 ft | 189 kts | 15° |
| 2026-04-26 04:42 | 23.14286 | 113.24631 | 1943 ft | 189 kts | 15° |
| 2026-04-26 04:43 | 23.15556 | 113.24976 | 1945 ft | 189 kts | 15° |
| 2026-04-26 04:43 | 23.16832 | 113.25323 | 1945 ft | 189 kts | 15° |
| 2026-04-26 04:43 | 23.18090 | 113.25665 | 1948 ft | 189 kts | 15° |
| 2026-04-26 04:43 | 23.19378 | 113.26015 | 1949 ft | 189 kts | 15° |
| 2026-04-26 04:44 | 23.20653 | 113.26360 | 1950 ft | 189 kts | 15° |
| 2026-04-26 04:44 | 23.21922 | 113.26704 | 1952 ft | 190 kts | 15° |
| 2026-04-26 04:44 | 23.23187 | 113.27046 | 1952 ft | 185 kts | 15° |
| 2026-04-26 04:44 | 23.24357 | 113.27362 | 1943 ft | 169 kts | 15° |
| 2026-04-26 04:45 | 23.25496 | 113.27671 | 1961 ft | 168 kts | 15° |
| 2026-04-26 04:45 | 23.26617 | 113.27975 | 1957 ft | 168 kts | 15° |
| 2026-04-26 04:45 | 23.27754 | 113.28282 | 1807 ft | 168 kts | 15° |
| 2026-04-26 04:45 | 23.28868 | 113.28584 | 1601 ft | 159 kts | 15° |
| 2026-04-26 04:46 | 23.29894 | 113.28860 | 1387 ft | 149 kts | 15° |
| 2026-04-26 04:46 | 23.30899 | 113.29132 | 1218 ft | 149 kts | 15° |
| 2026-04-26 04:46 | 23.31903 | 113.29404 | 1040 ft | 149 kts | 15° |
| 2026-04-26 04:46 | 23.32898 | 113.29673 | 850 ft | 148 kts | 16° |
| 2026-04-26 04:47 | 23.33886 | 113.29940 | 667 ft | 148 kts | 15° |
| 2026-04-26 04:47 | 23.34883 | 113.30210 | 475 ft | 147 kts | 16° |
| 2026-04-26 04:47 | 23.35862 | 113.30483 | 284 ft | 146 kts | 15° |
| 2026-04-26 04:47 | 23.36848 | 113.30736 | 129 ft | 146 kts | 14° |
| 2026-04-26 04:48 | 23.38530 | 113.31197 | 52 ft | 83 kts | 14° |
| 2026-04-26 04:48 | 23.38925 | 113.31294 | 52 ft | 33 kts | 5° |
| 2026-04-26 04:48 | 23.39015 | 113.31293 | 52 ft | 4 kts | 353° |
| 2026-04-26 04:49 | 23.39057 | 113.31287 | 52 ft | 7 kts | 351° |
| 2026-04-26 04:49 | 23.39113 | 113.31274 | 52 ft | 9 kts | 346° |
| 2026-04-26 04:49 | 23.39183 | 113.31255 | 52 ft | 11 kts | 346° |
| 2026-04-26 04:49 | 23.39267 | 113.31233 | 52 ft | 13 kts | 347° |
| 2026-04-26 04:50 | 23.39364 | 113.31224 | 52 ft | 14 kts | 13° |
| 2026-04-26 04:50 | 23.39467 | 113.31248 | 52 ft | 15 kts | 13° |
| 2026-04-26 04:50 | 23.39577 | 113.31279 | 52 ft | 16 kts | 14° |
| 2026-04-26 04:50 | 23.39660 | 113.31301 | 52 ft | 7 kts | 13° |
| 2026-04-26 04:51 | 23.39714 | 113.31306 | 52 ft | 5 kts | 339° |
| 2026-04-26 04:51 | 23.39740 | 113.31278 | 52 ft | 5 kts | 297° |
| 2026-04-26 04:51 | 23.39743 | 113.31268 | 52 ft | 0 kts | 289° |
| 2026-04-26 04:58 | 23.39745 | 113.31265 | 52 ft | 1 kts | 288° |
| 2026-04-26 04:58 | 23.39751 | 113.31243 | 52 ft | 4 kts | 285° |
| 2026-04-26 04:58 | 23.39760 | 113.31203 | 52 ft | 6 kts | 284° |
| 2026-04-26 04:58 | 23.39773 | 113.31145 | 52 ft | 9 kts | 283° |
| 2026-04-26 04:59 | 23.39790 | 113.31072 | 52 ft | 11 kts | 284° |
| 2026-04-26 04:59 | 23.39808 | 113.30983 | 52 ft | 12 kts | 270° |
| 2026-04-26 04:59 | 23.39748 | 113.30916 | 52 ft | 13 kts | 221° |
| 2026-04-26 04:59 | 23.39732 | 113.30816 | 52 ft | 14 kts | 281° |
| 2026-04-26 05:00 | 23.39721 | 113.30714 | 52 ft | 15 kts | 209° |
| 2026-04-26 05:00 | 23.39618 | 113.30685 | 52 ft | 15 kts | 192° |
| 2026-04-26 05:00 | 23.39516 | 113.30658 | 52 ft | 15 kts | 194° |
| 2026-04-26 05:00 | 23.39411 | 113.30628 | 52 ft | 15 kts | 194° |
| 2026-04-26 05:01 | 23.39308 | 113.30600 | 52 ft | 15 kts | 193° |
| 2026-04-26 05:01 | 23.39202 | 113.30574 | 52 ft | 15 kts | 192° |
| 2026-04-26 05:01 | 23.39097 | 113.30543 | 52 ft | 15 kts | 196° |
| 2026-04-26 05:01 | 23.39004 | 113.30512 | 52 ft | 11 kts | 220° |
| 2026-04-26 05:02 | 23.38989 | 113.30431 | 52 ft | 11 kts | 281° |
| 2026-04-26 05:02 | 23.38997 | 113.30346 | 52 ft | 11 kts | 244° |
| 2026-04-26 05:02 | 23.38934 | 113.30295 | 52 ft | 11 kts | 206° |
| 2026-04-26 05:02 | 23.38876 | 113.30263 | 52 ft | 5 kts | 207° |
| 2026-04-26 05:03 | 23.38867 | 113.30258 | 52 ft | 0 kts | 207° |